createdAt,value
2023-01-19T00:00:13.659Z,26.80
2023-01-19T00:01:13.546Z,24.70
2023-01-19T00:02:13.677Z,26.00
2023-01-19T00:03:13.500Z,23.20
2023-01-19T00:04:13.620Z,26.30
2023-01-19T00:05:13.730Z,25.80
2023-01-19T00:06:13.771Z,25.30
2023-01-19T00:07:13.463Z,23.20
2023-01-19T00:08:13.637Z,27.80
2023-01-19T00:09:13.599Z,23.40
2023-01-19T00:10:13.548Z,24.90
2023-01-19T00:11:13.476Z,26.90
2023-01-19T00:12:13.665Z,27.20
2023-01-19T01:38:25.242Z,24.70
2023-01-19T01:38:31.278Z,24.30
2023-01-19T01:39:31.466Z,28.20
2023-01-19T01:40:31.277Z,24.40
2023-01-19T01:41:31.413Z,29.80
2023-01-19T01:42:31.302Z,26.10
2023-01-19T01:43:31.389Z,28.20
2023-01-19T01:44:31.504Z,24.80
2023-01-19T01:45:31.288Z,27.10
2023-01-19T01:46:31.116Z,29.50
2023-01-19T01:47:31.283Z,27.80
2023-01-19T01:48:31.467Z,29.90
2023-01-19T01:49:31.187Z,27.30
2023-01-19T01:50:31.082Z,28.00
2023-01-19T04:06:43.050Z,29.20
2023-01-19T04:06:49.008Z,27.10
2023-01-19T04:07:49.141Z,29.10
2023-01-19T04:08:49.175Z,32.90
2023-01-19T04:09:49.198Z,35.30
2023-01-19T04:10:49.050Z,32.70
2023-01-19T05:39:00.947Z,31.70
2023-01-19T05:39:07.014Z,30.90
2023-01-19T05:40:07.532Z,37.10
2023-01-19T05:41:07.025Z,33.30
2023-01-19T05:42:07.474Z,32.10
2023-01-19T05:43:06.908Z,33.40
2023-01-19T05:44:06.933Z,32.10
2023-01-19T05:45:06.996Z,31.10
2023-01-19T05:46:06.863Z,30.30
2023-01-19T05:47:06.955Z,29.80
2023-01-19T05:48:08.220Z,28.30
2023-01-19T08:03:18.859Z,29.10
2023-01-19T09:39:36.631Z,31.90
2023-01-19T09:39:42.772Z,36.40
2023-01-19T11:55:53.792Z,49.60
2023-01-19T11:56:00.256Z,50.30
2023-01-19T13:40:11.906Z,66.90
2023-01-19T13:40:17.900Z,75.90
2023-01-19T15:56:28.702Z,62.20
2023-01-19T15:56:34.846Z,55.10
2023-01-19T15:57:34.703Z,58.90
2023-01-19T15:58:34.679Z,60.60
2023-01-19T15:59:34.769Z,55.40
2023-01-19T16:00:35.060Z,58.80
2023-01-19T16:01:34.913Z,61.10
2023-01-19T16:02:35.481Z,58.70
2023-01-19T16:03:34.575Z,56.40
2023-01-19T16:04:34.767Z,65.60
2023-01-19T16:05:42.993Z,61.00
2023-01-19T16:06:34.869Z,63.40
2023-01-19T17:40:46.846Z,59.90
2023-01-19T17:40:52.999Z,59.00
2023-01-19T17:41:52.960Z,46.50
2023-01-19T17:42:52.836Z,50.60
2023-01-19T18:00:45.395Z,103.00
2023-01-19T18:01:47.367Z,98.20
2023-01-19T18:02:47.484Z,59.90
2023-01-19T18:03:49.267Z,57.10
2023-01-19T18:04:47.083Z,55.50
2023-01-19T18:05:48.832Z,59.80
2023-01-19T18:07:42.062Z,67.00
2023-01-19T18:07:47.395Z,73.60
2023-01-19T18:08:47.343Z,70.00
2023-01-19T18:09:49.289Z,82.10
2023-01-19T18:10:47.359Z,68.60
2023-01-19T18:11:47.833Z,82.90
2023-01-19T18:12:47.524Z,76.20
2023-01-19T18:13:47.484Z,59.10
2023-01-19T18:14:47.284Z,61.00
2023-01-19T18:15:48.960Z,59.70
2023-01-19T18:16:47.933Z,52.30
2023-01-19T18:17:47.284Z,52.30
2023-01-19T18:18:47.658Z,52.60
2023-01-19T18:19:47.381Z,52.80
2023-01-19T18:20:47.192Z,53.40
2023-01-19T18:21:47.467Z,54.90
2023-01-19T18:22:47.220Z,54.80
2023-01-19T18:23:47.222Z,57.30
2023-01-19T18:24:47.215Z,54.00
2023-01-19T18:25:49.172Z,55.90
2023-01-19T18:26:47.284Z,53.20
2023-01-19T18:27:47.130Z,55.50
2023-01-19T18:28:46.996Z,59.40
2023-01-19T18:29:49.283Z,56.40
2023-01-19T18:30:47.872Z,57.60
2023-01-19T18:31:47.338Z,55.90
2023-01-19T18:32:47.807Z,56.90
2023-01-19T18:33:51.280Z,50.40
2023-01-19T18:34:47.538Z,51.40
2023-01-19T18:35:47.319Z,53.00
2023-01-19T18:37:07.470Z,54.00
2023-01-19T18:37:47.427Z,52.60
2023-01-19T18:38:47.446Z,55.40
2023-01-19T18:39:47.203Z,54.00
2023-01-19T18:40:51.019Z,56.70
2023-01-19T18:42:58.004Z,51.80
2023-01-19T18:43:59.031Z,54.10
2023-01-19T18:44:58.997Z,61.90
2023-01-19T18:45:59.069Z,58.90
2023-01-19T18:46:58.977Z,59.80
2023-01-19T18:47:58.953Z,57.90
2023-01-19T18:48:58.972Z,62.00
2023-01-19T18:49:58.975Z,60.30
2023-01-19T18:50:58.948Z,63.00
2023-01-19T18:51:58.916Z,58.10
2023-01-19T18:52:58.999Z,59.50
2023-01-19T18:53:58.905Z,62.10
2023-01-19T18:54:58.910Z,58.00
2023-01-19T18:55:58.888Z,56.70
2023-01-19T18:56:59.088Z,54.80
2023-01-19T18:57:58.867Z,55.70
2023-01-19T18:58:58.887Z,55.60
2023-01-19T18:59:58.907Z,57.40
2023-01-19T19:00:58.880Z,57.60
2023-01-19T19:01:58.852Z,59.70
2023-01-19T19:02:58.813Z,60.70
2023-01-19T19:03:58.779Z,59.80
2023-01-19T19:04:58.805Z,61.30
2023-01-19T19:05:58.833Z,57.90
2023-01-19T19:06:58.787Z,59.50
2023-01-19T19:07:58.755Z,58.20
2023-01-19T19:08:58.756Z,58.60
2023-01-19T19:09:58.764Z,57.20
2023-01-19T19:10:58.707Z,57.20
2023-01-19T19:11:58.712Z,62.10
2023-01-19T19:12:58.793Z,66.00
2023-01-19T19:13:58.716Z,59.70
2023-01-19T19:14:58.681Z,59.30
2023-01-19T19:15:58.704Z,61.90
2023-01-19T19:16:58.804Z,62.40
2023-01-19T19:17:58.637Z,59.60
2023-01-19T19:18:58.650Z,66.40
2023-01-19T19:19:58.643Z,60.80
2023-01-19T19:20:58.691Z,56.70
2023-01-19T19:21:58.623Z,64.60
2023-01-19T19:22:58.595Z,63.10
2023-01-19T19:23:58.631Z,67.30
2023-01-19T19:24:58.636Z,61.70
2023-01-19T19:25:58.564Z,61.60
2023-01-19T19:26:58.600Z,56.70
2023-01-19T19:27:58.548Z,59.20
2023-01-19T19:28:58.578Z,64.50
2023-01-19T19:29:58.522Z,62.00
2023-01-19T19:30:58.606Z,60.10
2023-01-19T19:31:58.557Z,69.10
2023-01-19T19:32:58.569Z,65.50
2023-01-19T19:33:58.511Z,76.30
2023-01-19T19:34:58.563Z,57.50
2023-01-19T19:35:58.478Z,64.50
2023-01-19T19:37:01.016Z,67.70
2023-01-19T19:37:58.473Z,66.80
2023-01-19T19:38:58.552Z,69.40
2023-01-19T19:39:58.422Z,64.20
2023-01-19T19:40:58.456Z,64.80
2023-01-19T19:41:58.418Z,72.20
2023-01-19T19:42:58.898Z,68.40
2023-01-19T19:43:58.379Z,71.50
2023-01-19T19:44:58.380Z,71.00
2023-01-19T19:45:58.390Z,71.50
2023-01-19T19:46:58.406Z,69.60
2023-01-19T19:47:58.352Z,65.20
2023-01-19T19:48:58.347Z,69.30
2023-01-19T19:49:58.326Z,81.50
2023-01-19T19:51:02.008Z,74.10
2023-01-19T19:51:58.364Z,72.10
2023-01-19T19:52:58.332Z,71.50
2023-01-19T19:53:58.354Z,72.00
2023-01-19T19:54:58.630Z,75.30
2023-01-19T19:55:58.512Z,71.40
2023-01-19T19:56:58.460Z,76.40
2023-01-19T19:57:58.255Z,76.10
2023-01-19T19:58:58.309Z,73.40
2023-01-19T19:59:58.231Z,74.20
2023-01-19T20:00:58.314Z,71.10
2023-01-19T20:01:58.617Z,79.30
2023-01-19T20:02:58.200Z,76.80
2023-01-19T20:03:58.183Z,82.40
2023-01-19T20:04:58.705Z,82.10
2023-01-19T20:05:58.167Z,79.40
2023-01-19T20:06:58.171Z,79.60
2023-01-19T20:07:58.147Z,78.80
2023-01-19T20:08:58.168Z,84.30
2023-01-19T20:09:58.129Z,79.40
2023-01-19T20:10:58.104Z,80.20
2023-01-19T20:11:58.123Z,76.20
2023-01-19T20:12:58.097Z,80.70
2023-01-19T20:13:58.081Z,76.70
2023-01-19T20:14:58.167Z,79.50
2023-01-19T20:15:58.153Z,76.50
2023-01-19T20:16:58.053Z,73.50
2023-01-19T20:17:58.037Z,75.70
2023-01-19T20:18:58.099Z,76.20
2023-01-19T20:19:58.019Z,75.10
2023-01-19T20:20:58.021Z,81.10
2023-01-19T20:21:58.056Z,78.60
2023-01-19T20:22:58.019Z,76.40
2023-01-19T20:23:57.988Z,76.00
2023-01-19T20:24:58.041Z,80.70
2023-01-19T20:25:58.017Z,76.20
2023-01-19T20:26:57.944Z,75.80
2023-01-19T20:27:57.948Z,77.30
2023-01-19T20:28:58.032Z,77.90
2023-01-19T20:29:57.951Z,77.20
2023-01-19T20:30:57.921Z,75.40
2023-01-19T20:31:57.897Z,77.60
2023-01-19T20:32:58.021Z,78.80
2023-01-19T20:33:57.909Z,73.60
2023-01-19T20:34:57.899Z,77.70
2023-01-19T20:35:57.992Z,79.40
2023-01-19T20:36:57.830Z,72.80
2023-01-19T20:37:57.832Z,74.20
2023-01-19T20:38:57.916Z,78.80
2023-01-19T20:39:57.859Z,72.00
2023-01-19T20:40:57.799Z,78.40
2023-01-19T20:41:57.809Z,70.80
2023-01-19T20:42:57.837Z,77.10
2023-01-19T20:43:57.781Z,76.20
2023-01-19T20:44:57.931Z,76.00
2023-01-19T20:45:57.766Z,76.90
2023-01-19T20:46:57.740Z,80.50
2023-01-19T20:47:57.757Z,72.50
2023-01-19T20:48:57.929Z,75.10
2023-01-19T20:49:57.748Z,76.80
2023-01-19T20:50:57.722Z,77.50
2023-01-19T20:51:57.749Z,72.90
2023-01-19T20:52:57.695Z,75.50
2023-01-19T20:53:57.751Z,79.10
2023-01-19T20:54:57.932Z,72.40
2023-01-19T20:55:57.651Z,80.30
2023-01-19T20:56:57.640Z,75.10
2023-01-19T20:57:57.649Z,76.80
2023-01-19T20:58:57.688Z,82.00
2023-01-19T20:59:57.641Z,84.40
2023-01-19T21:00:57.742Z,88.80
2023-01-19T21:01:57.650Z,83.50
2023-01-19T21:02:57.633Z,92.60
2023-01-19T21:03:57.572Z,91.50
2023-01-19T21:04:57.574Z,89.40
2023-01-19T21:05:59.572Z,84.50
2023-01-19T21:06:57.569Z,80.50
2023-01-19T21:07:57.534Z,80.90
2023-01-19T21:08:57.568Z,84.10
2023-01-19T21:09:57.518Z,87.00
2023-01-19T21:10:57.507Z,80.40
2023-01-19T21:11:57.737Z,81.40
2023-01-19T21:12:57.476Z,75.00
2023-01-19T21:13:57.489Z,77.30
2023-01-19T21:14:57.571Z,78.00
2023-01-19T21:15:57.453Z,73.80
2023-01-19T21:16:57.436Z,79.80
2023-01-19T21:17:57.450Z,74.80
2023-01-19T21:18:57.442Z,80.30
2023-01-19T21:19:57.406Z,76.60
2023-01-19T21:20:57.473Z,74.80
2023-01-19T21:21:57.426Z,79.40
2023-01-19T21:22:57.415Z,79.40
2023-01-19T21:23:57.400Z,78.10
2023-01-19T21:24:57.368Z,77.80
2023-01-19T21:25:57.394Z,80.10
2023-01-19T21:26:57.389Z,78.60
2023-01-19T21:27:57.326Z,77.60
2023-01-19T21:28:57.358Z,79.80
2023-01-19T21:29:57.294Z,83.30
2023-01-19T21:30:57.389Z,81.80
2023-01-19T21:31:57.284Z,83.60
2023-01-19T21:32:57.259Z,77.70
2023-01-19T21:33:57.272Z,78.30
2023-01-19T21:34:57.265Z,81.40
2023-01-19T21:35:57.269Z,78.40
2023-01-19T21:36:57.269Z,83.70
2023-01-19T21:37:57.225Z,84.90
2023-01-19T21:38:57.235Z,83.50
2023-01-19T21:39:57.219Z,83.30
2023-01-19T21:40:57.204Z,84.50
2023-01-19T21:41:57.189Z,82.70
2023-01-19T21:42:57.166Z,86.60
2023-01-19T21:43:57.201Z,88.50
2023-01-19T21:44:57.189Z,82.30
2023-01-19T21:45:57.183Z,87.30
2023-01-19T21:46:57.161Z,87.40
2023-01-19T21:47:57.109Z,89.80
2023-01-19T21:48:57.123Z,88.20
2023-01-19T21:49:57.157Z,87.00
2023-01-19T21:50:57.113Z,81.40
2023-01-19T21:51:57.072Z,78.10
2023-01-19T21:52:57.104Z,83.20
2023-01-19T21:53:57.072Z,88.50
2023-01-19T21:54:57.063Z,88.60
2023-01-19T21:55:57.045Z,82.80
2023-01-19T21:56:57.075Z,82.30
2023-01-19T21:57:57.214Z,77.30
2023-01-19T21:58:57.014Z,81.70
2023-01-19T21:59:57.007Z,86.60
2023-01-19T22:00:57.045Z,76.60
2023-01-19T22:01:57.161Z,80.60
2023-01-19T22:03:03.878Z,78.60
2023-01-19T22:03:56.972Z,80.40
2023-01-19T22:04:56.969Z,78.60
2023-01-19T22:05:56.957Z,81.50
2023-01-19T22:06:56.971Z,82.60
2023-01-19T22:07:56.982Z,79.10
2023-01-19T22:08:56.894Z,78.20
2023-01-19T22:09:56.903Z,86.80
2023-01-19T22:10:56.960Z,84.90
2023-01-19T22:11:56.925Z,74.00
2023-01-19T22:12:56.903Z,77.80
2023-01-19T22:13:56.892Z,82.00
2023-01-19T22:14:56.889Z,80.10
2023-01-19T22:15:56.838Z,81.80
2023-01-19T22:16:56.972Z,78.20
2023-01-19T22:17:56.792Z,81.10
2023-01-19T22:18:56.890Z,79.20
2023-01-19T22:19:56.966Z,80.30
2023-01-19T22:20:56.859Z,86.50
2023-01-19T22:21:56.761Z,89.00
2023-01-19T22:22:56.775Z,80.90
2023-01-19T22:23:56.787Z,79.90
2023-01-19T22:24:56.828Z,87.60
2023-01-19T22:25:56.781Z,82.90
2023-01-19T22:26:56.750Z,79.60
2023-01-19T22:27:56.721Z,83.50
2023-01-19T22:28:56.697Z,79.30
2023-01-19T22:29:56.742Z,83.20
2023-01-19T22:30:56.762Z,82.30
2023-01-19T22:31:56.661Z,86.40
2023-01-19T22:32:56.710Z,86.70
2023-01-19T22:33:56.704Z,91.20
2023-01-19T22:34:56.679Z,79.90
2023-01-19T22:35:56.667Z,81.90
2023-01-19T22:36:56.642Z,87.40
2023-01-19T22:37:56.738Z,82.00
2023-01-19T22:38:56.627Z,84.90
2023-01-19T22:39:56.622Z,85.50
2023-01-19T22:40:56.605Z,84.70
2023-01-19T22:41:56.597Z,83.20
2023-01-19T22:42:56.575Z,82.70
2023-01-19T22:43:56.663Z,85.20
2023-01-19T22:44:56.694Z,84.70
2023-01-19T22:45:56.618Z,87.80
2023-01-19T22:46:56.572Z,85.90
2023-01-19T22:47:56.516Z,79.30
2023-01-19T22:48:56.501Z,88.90
2023-01-19T22:49:56.652Z,82.90
2023-01-19T22:50:56.536Z,87.40
2023-01-19T22:51:56.456Z,87.40
2023-01-19T22:52:56.532Z,83.90
2023-01-19T22:53:56.476Z,81.90
2023-01-19T22:54:56.445Z,83.30
2023-01-19T22:55:56.472Z,80.80
2023-01-19T22:56:56.443Z,85.50
2023-01-19T22:57:56.467Z,87.90
2023-01-19T22:58:56.396Z,89.20
2023-01-19T22:59:56.399Z,84.30
2023-01-19T23:00:56.475Z,88.90
2023-01-19T23:01:56.491Z,97.00
2023-01-19T23:02:56.361Z,101.80
2023-01-19T23:03:56.385Z,102.40
2023-01-19T23:04:56.324Z,91.90
2023-01-19T23:05:56.401Z,92.80
2023-01-19T23:06:56.380Z,90.60
2023-01-19T23:07:56.375Z,91.30
2023-01-19T23:08:56.302Z,91.50
2023-01-19T23:09:56.290Z,94.10
2023-01-19T23:10:56.356Z,89.30
2023-01-19T23:11:56.323Z,92.90
2023-01-19T23:12:56.268Z,91.10
2023-01-19T23:13:56.282Z,101.10
2023-01-19T23:14:56.216Z,98.00
2023-01-19T23:15:56.326Z,93.40
2023-01-19T23:16:56.263Z,98.00
2023-01-19T23:17:56.577Z,94.90
2023-01-19T23:18:56.216Z,87.70
2023-01-19T23:19:56.253Z,96.20
2023-01-19T23:20:56.178Z,97.20
2023-01-19T23:21:56.185Z,99.20
2023-01-19T23:22:56.148Z,98.10
2023-01-19T23:23:56.152Z,93.60
2023-01-19T23:24:56.114Z,97.20
2023-01-19T23:25:56.185Z,95.00
2023-01-19T23:26:56.108Z,95.40
2023-01-19T23:27:56.105Z,96.90
2023-01-19T23:28:56.152Z,101.80
2023-01-19T23:29:56.088Z,96.80
2023-01-19T23:30:56.163Z,95.90
2023-01-19T23:31:56.080Z,100.20
2023-01-19T23:32:56.096Z,99.00
2023-01-19T23:33:56.132Z,97.40
2023-01-19T23:34:56.030Z,96.00
2023-01-19T23:35:56.041Z,95.10
2023-01-19T23:36:56.010Z,95.60
2023-01-19T23:37:56.005Z,101.60
2023-01-19T23:38:55.992Z,103.10
2023-01-19T23:39:56.003Z,106.50
2023-01-19T23:40:55.992Z,96.90
2023-01-19T23:41:56.024Z,96.10
2023-01-19T23:42:55.958Z,107.30
2023-01-19T23:43:56.039Z,103.80
2023-01-19T23:44:55.947Z,102.70
2023-01-19T23:45:56.036Z,102.20
2023-01-19T23:46:57.887Z,102.00
2023-01-19T23:47:55.930Z,100.60
2023-01-19T23:48:55.968Z,98.20
2023-01-19T23:49:55.951Z,98.40
2023-01-19T23:50:55.878Z,112.30
2023-01-19T23:51:56.069Z,100.60
2023-01-19T23:52:55.891Z,103.90
2023-01-19T23:53:55.882Z,106.70
2023-01-19T23:54:55.891Z,105.30
2023-01-19T23:55:55.895Z,101.70
2023-01-19T23:56:55.796Z,102.70
2023-01-19T23:57:55.836Z,97.40
2023-01-19T23:58:56.657Z,102.90
2023-01-19T23:59:55.810Z,108.70
